Latest Weather Observations for Mount Moornapa

IDV60801

Issued at 1:05 am EDT Saturday 1 November 2014 (issued every 30 minutes, with the page automatically refreshed every 10 minutes)

About weather observations | Map of weather stations | Latest weather observations for VIC | Other Formats
Station Details ID: 085296 Name: MOUNT MOORNAPA Lat: -37.75 Lon: 147.14 Height: 480.0 m
Data from the previous 72 hours. | See also: Recent months at Mount Moornapa
Date/Time
EDT
Temp
°C
App
Temp
°C
Dew
Point
Rel
Hum
%
Delta-T
°C
Wind Press
QNH
hPa
Press
MSL
hPa
Rain
since 9 am
mm
Dir
 
Spd
km/h
Gust
km/h
Spd
kts
Gust
kts
01/01:00am 22.0 17.1 4.1 31 8.9 NNW 19 37 10 20 - - 0.0
01/12:30am 21.5 17.1 4.6 33 8.5 N 17 30 9 16 - - 0.0
01/12:00am 21.4 17.4 4.9 34 8.3 NNW 15 24 8 13 - - 0.0
 
Date/Time
EDT
Temp
°C
App
Temp
°C
Dew
Point
Rel
Hum
%
Delta-T
°C
Wind Press
QNH
hPa
Press
MSL
hPa
Rain
since 9 am
mm
Dir
 
Spd
km/h
Gust
km/h
Spd
kts
Gust
kts
31/11:30pm 21.1 16.8 5.1 35 8.1 NNW 17 24 9 13 - - 0.0
31/11:00pm 22.0 18.4 5.0 33 8.6 N 13 22 7 12 - - 0.0
31/10:30pm 22.8 19.5 4.8 31 9.1 N 11 17 6 9 - - 0.0
31/10:00pm 22.9 19.7 4.9 31 9.2 N 11 17 6 9 - - 0.0
31/09:30pm 23.3 20.0 4.8 30 9.4 N 11 17 6 9 - - 0.0
31/09:00pm 24.0 20.8 4.9 29 9.8 N 11 17 6 9 - - 0.0
31/08:30pm 24.4 21.2 5.2 29 9.9 N 11 15 6 8 - - 0.0
31/08:00pm 24.2 21.3 4.6 28 10.0 NNW 9 15 5 8 - - 0.0
31/07:30pm 24.8 21.6 5.1 28 10.2 NW 11 24 6 13 - - 0.0
31/07:00pm 26.2 22.9 6.3 28 10.6 NNW 13 26 7 14 - - 0.0
31/06:30pm 26.1 23.7 7.2 30 10.2 NNW 9 17 5 9 - - 0.0
31/06:00pm 25.4 23.6 8.0 33 9.5 NW 7 19 4 10 - - 0.0
31/05:30pm 25.2 24.1 10.6 40 8.3 NNE 7 13 4 7 - - 0.0
31/05:00pm 25.2 23.9 9.9 38 8.6 WSW 7 19 4 10 - - 0.0
31/04:30pm 25.7 25.2 9.5 36 9.1 W 2 7 1 4 - - 0.0
31/04:00pm 26.7 26.3 11.2 38 9.0 N 4 9 2 5 - - 0.0
31/03:30pm 26.3 26.9 13.1 44 7.9 SE 2 6 1 3 - - 0.0
31/03:00pm 25.6 26.1 14.1 49 7.0 ESE 4 6 2 3 - - 0.0
31/02:30pm 23.5 24.3 14.8 58 5.3 SE 4 7 2 4 - - 0.0
31/02:00pm 23.0 23.3 13.5 55 5.6 SE 4 9 2 5 - - 0.0
31/01:30pm 23.4 24.2 13.6 54 5.8 ESE 2 4 1 2 - - 0.0
31/01:00pm 22.5 23.5 14.4 60 4.9 ESE 2 6 1 3 - - 0.0
31/12:30pm 21.5 22.0 12.9 58 5.0 S 2 4 1 2 - - 0.0
31/12:00pm 21.2 21.7 14.1 64 4.2 S 4 7 2 4 - - 0.0
31/11:30am 20.1 20.5 13.8 67 3.7 S 4 6 2 3 - - 0.0
31/11:00am 20.1 20.4 13.3 65 4.0 S 4 4 2 2 - - 0.0
31/10:30am 19.8 20.7 14.0 69 3.4 SE 2 4 1 2 - - 0.0
31/10:00am 19.2 19.4 12.0 63 4.1 ENE 2 4 1 2 - - 0.0
31/09:30am 18.2 18.6 11.3 64 3.8 CALM 0 0 0 0 - - 0.0
31/09:00am 14.8 13.0 9.6 71 2.8 N 9 15 5 8 - - 0.0
31/08:30am 12.7 11.8 10.6 87 1.1 NNE 6 9 3 5 - - 0.0
31/08:00am 11.3 10.6 10.0 92 0.7 NNE 4 7 2 4 - - 0.0
31/07:30am 10.7 10.3 9.9 95 0.4 N 2 7 1 4 - - 0.0
31/07:00am 10.7 10.9 10.4 98 0.2 CALM 0 0 0 0 - - 0.0
31/06:30am 10.3 10.3 9.8 97 0.3 CALM 0 4 0 2 - - 0.0
31/06:00am 10.4 9.2 10.2 99 0.1 N 7 9 4 5 - - 0.0
31/05:30am 10.2 8.6 10.1 99 0.1 N 9 13 5 7 - - 0.0
31/05:00am 10.4 9.1 10.1 98 0.2 N 7 9 4 5 - - 0.0
31/04:30am 10.4 9.2 10.2 99 0.1 NNW 7 9 4 5 - - 0.0
31/04:00am 10.0 7.8 9.5 97 0.3 N 11 11 6 6 - - 0.0
31/03:30am 10.4 9.0 9.5 94 0.5 N 7 9 4 5 - - 0.0
31/03:00am 10.5 8.7 9.6 94 0.5 N 9 11 5 6 - - 0.0
31/02:30am 10.3 8.5 9.4 94 0.5 N 9 11 5 6 - - 0.0
31/02:00am 10.8 9.4 9.6 92 0.6 N 7 9 4 5 - - 0.0
31/01:30am 10.4 9.9 9.2 92 0.6 N 2 4 1 2 - - 0.0
31/01:00am 10.9 9.7 9.7 92 0.6 NNE 6 6 3 3 - - 0.0
31/12:30am 11.1 9.7 9.7 91 0.7 NNE 7 9 4 5 - - 0.0
31/12:00am 10.9 9.4 9.3 90 0.8 NE 7 11 4 6 - - 0.0
 
Date/Time
EDT
Temp
°C
App
Temp
°C
Dew
Point
Rel
Hum
%
Delta-T
°C
Wind Press
QNH
hPa
Press
MSL
hPa
Rain
since 9 am
mm
Dir
 
Spd
km/h
Gust
km/h
Spd
kts
Gust
kts
30/11:30pm 10.6 9.1 9.2 91 0.7 E 7 13 4 7 - - 0.0
30/11:00pm 10.8 9.3 9.2 90 0.8 E 7 13 4 7 - - 0.0
30/10:30pm 10.9 9.1 9.3 90 0.8 E 9 17 5 9 - - 0.0
30/10:00pm 11.1 8.9 9.5 90 0.8 E 11 19 6 10 - - 0.0
30/09:30pm 11.2 9.1 9.6 90 0.8 E 11 17 6 9 - - 0.0
30/09:00pm 11.2 9.9 10.1 93 0.6 E 7 15 4 8 - - 0.0
30/08:30pm 10.9 9.2 9.8 93 0.6 E 9 15 5 8 - - 0.0
30/08:00pm 11.3 9.6 9.9 91 0.7 E 9 15 5 8 - - 0.0
30/07:30pm 12.1 10.1 10.0 87 1.1 E 11 19 6 10 - - 0.0
30/07:00pm 13.3 11.7 10.3 82 1.6 ESE 9 19 5 10 - - 0.0
30/06:30pm 14.8 14.0 11.2 79 2.0 SE 6 13 3 7 - - 0.0
30/06:00pm 15.7 14.8 11.3 75 2.4 SE 7 13 4 7 - - 0.0
30/05:30pm 17.1 16.3 11.8 71 3.0 SE 7 11 4 6 - - 0.0
30/05:00pm 17.6 16.5 11.9 69 3.2 SE 9 17 5 9 - - 0.0
30/04:30pm 18.8 17.9 12.5 67 3.6 SSE 9 20 5 11 - - 0.0
30/04:00pm 19.9 19.5 12.4 62 4.3 SE 6 15 3 8 - - 0.0
30/03:30pm 18.9 18.3 12.2 65 3.8 SSE 7 11 4 6 - - 0.0
30/03:00pm 19.3 18.2 12.1 63 4.1 SSE 9 17 5 9 - - 0.0
30/02:30pm 19.4 19.2 13.1 67 3.6 SSE 6 13 3 7 - - 0.0
30/02:00pm 20.0 19.6 12.5 62 4.3 SSE 6 11 3 6 - - 0.0
30/01:30pm 20.1 19.8 12.8 63 4.2 SSW 6 11 3 6 - - 0.0
30/01:00pm 19.2 19.0 11.7 62 4.2 SSE 4 7 2 4 - - 0.0
30/12:30pm 18.2 17.4 11.0 63 4.0 S 6 7 3 4 - - 0.0
30/12:00pm 18.3 17.9 12.3 68 3.4 S 6 11 3 6 - - 0.0
30/11:30am 17.4 17.0 11.0 66 3.5 S 4 9 2 5 - - 0.0
30/11:00am 17.0 16.1 11.3 69 3.2 S 7 13 4 7 - - 0.0
30/10:30am 15.9 15.2 10.2 69 3.1 SSE 4 7 2 4 - - 0.0
30/10:00am 15.1 15.0 10.9 76 2.3 SE 2 7 1 4 - - 0.0
30/09:30am 14.1 13.4 10.1 77 2.1 SE 4 6 2 3 - - 0.0
30/09:00am 13.1 12.7 9.9 81 1.7 ESE 2 7 1 4 - - 0.0
30/08:30am 11.4 10.9 9.5 88 1.0 SSE 2 6 1 3 - - 0.0
30/08:00am 10.2 9.6 9.0 92 0.6 S 2 6 1 3 - - 0.0
30/07:30am 10.1 9.5 8.9 92 0.6 SE 2 4 1 2 - - 0.0
30/07:00am 9.4 9.2 8.9 97 0.3 CALM 0 0 0 0 - - 0.0
30/06:30am 9.1 8.1 8.8 98 0.2 S 4 6 2 3 - - 0.0
30/06:00am 8.8 7.9 7.9 94 0.4 SW 2 6 1 3 - - 0.0
30/05:30am 9.2 8.4 8.1 93 0.5 WSW 2 4 1 2 - - 0.0
30/05:00am 9.3 8.1 8.1 92 0.6 W 4 6 2 3 - - 0.0
30/04:30am 9.7 8.6 8.3 91 0.7 W 4 6 2 3 - - 0.0
30/04:00am 10.0 8.9 8.3 89 0.8 NNW 4 4 2 2 - - 0.0
30/03:30am 9.7 8.6 8.3 91 0.7 NW 4 6 2 3 - - 0.0
30/03:00am 9.8 8.6 8.2 90 0.8 NW 4 7 2 4 - - 0.0
30/02:30am 10.0 8.5 8.3 89 0.8 W 6 11 3 6 - - 0.0
30/02:00am 10.1 8.5 8.7 91 0.7 W 7 15 4 8 - - 0.0
30/01:30am 9.9 8.4 9.1 95 0.4 W 7 11 4 6 - - 0.0
30/01:00am 9.9 8.6 9.1 95 0.4 W 6 11 3 6 - - 0.0
30/12:30am 10.2 8.9 9.3 94 0.5 WSW 6 9 3 5 - - 0.0
30/12:00am 11.2 10.2 8.9 86 1.2 NW 4 6 2 3 - - 0.0
 
Date/Time
EDT
Temp
°C
App
Temp
°C
Dew
Point
Rel
Hum
%
Delta-T
°C
Wind Press
QNH
hPa
Press
MSL
hPa
Rain
since 9 am
mm
Dir
 
Spd
km/h
Gust
km/h
Spd
kts
Gust
kts
29/11:30pm 11.4 9.9 9.1 86 1.2 N 7 9 4 5 - - 0.0
29/11:00pm 11.2 9.7 9.1 87 1.1 NNE 7 11 4 6 - - 0.0
29/10:30pm 10.7 8.8 9.0 89 0.9 N 9 11 5 6 - - 0.0
29/10:00pm 10.9 8.5 8.8 87 1.1 NNE 11 13 6 7 - - 0.0
29/09:30pm 10.7 9.1 8.8 88 1.0 NE 7 13 4 7 - - 0.0
29/09:00pm 10.4 8.9 9.0 91 0.7 E 7 13 4 7 - - 0.0
29/08:30pm 10.5 8.6 8.9 90 0.8 E 9 15 5 8 - - 0.0
29/08:00pm 11.1 9.8 9.2 88 1.0 ESE 6 19 3 10 - - 0.0
29/07:30pm 12.3 10.8 9.3 82 1.6 ESE 7 15 4 8 - - 0.0
29/07:00pm 14.2 13.0 9.6 74 2.4 SE 6 9 3 5 - - 0.0
29/06:30pm 16.1 15.8 10.2 68 3.2 SSE 2 7 1 4 - - 0.0
29/06:00pm 16.9 16.6 10.1 64 3.7 SSE 2 6 1 3 - - 0.0
29/05:30pm 17.5 16.4 10.1 62 4.0 S 6 11 3 6 - - 0.0
29/05:00pm 17.8 17.0 9.7 59 4.4 S 4 11 2 6 - - 0.0
29/04:30pm 18.4 17.6 9.7 57 4.7 S 4 11 2 6 - - 0.0
29/04:00pm 18.9 18.0 10.5 58 4.6 SSW 6 11 3 6 - - 0.0
29/03:30pm 19.1 18.1 10.4 57 4.8 S 6 13 3 7 - - 0.0
29/03:00pm 18.4 17.2 9.5 56 4.8 S 6 13 3 7 - - 0.0
29/02:30pm 19.5 18.4 10.0 54 5.2 SSE 6 13 3 7 - - 0.0
29/02:00pm 19.0 17.6 8.9 52 5.4 SSE 6 9 3 5 - - 0.0
29/01:30pm 18.9 18.0 9.4 54 5.1 SSE 4 9 2 5 - - 0.0
29/01:00pm 17.2 15.3 6.7 50 5.3 S 6 9 3 5 - - 0.0
29/12:30pm 16.5 15.2 5.8 49 5.3 NNW 2 7 1 4 - - 0.0
29/12:00pm 16.0 14.3 5.9 51 5.0 WNW 4 9 2 5 - - 0.0
29/11:30am 15.1 13.5 6.4 56 4.3 WSW 4 6 2 3 - - 0.0
29/11:00am 14.4 12.6 5.5 55 4.3 W 4 7 2 4 - - 0.0
29/10:30am 13.8 12.1 5.7 58 3.9 W 4 7 2 4 - - 0.0
29/10:00am 12.5 10.6 4.7 59 3.7 WNW 4 7 2 4 - - 0.0
29/09:30am 12.1 10.4 5.7 65 3.1 SW 4 9 2 5 - - 0.0
29/09:00am 11.1 9.1 4.6 64 3.0 SW 4 11 2 6 - - 0.2
29/08:30am 10.3 7.8 4.5 67 2.7 W 7 13 4 7 - - 0.2
29/08:00am 8.9 6.2 3.5 69 2.4 NW 7 9 4 5 - - 0.2
29/07:30am 7.9 5.1 3.2 72 2.1 NW 7 11 4 6 - - 0.2
29/07:00am 8.5 4.9 2.7 67 2.5 W 11 17 6 9 - - 0.2
29/06:30am 8.5 5.2 2.7 67 2.5 WNW 9 17 5 9 - - 0.2
29/06:00am 8.8 5.5 2.6 65 2.7 W 9 17 5 9 - - 0.2
29/05:30am 8.4 5.2 2.8 68 2.4 WNW 9 13 5 7 - - 0.2
29/05:00am 8.0 5.2 2.9 70 2.2 WNW 7 13 4 7 - - 0.2
29/04:30am 8.1 4.8 2.6 68 2.4 WNW 9 19 5 10 - - 0.2
29/04:00am 8.2 4.1 2.4 67 2.5 W 13 22 7 12 - - 0.2
29/03:30am 8.2 3.7 2.4 67 2.5 W 15 22 8 12 - - 0.2
29/03:00am 8.0 4.0 2.7 69 2.3 WSW 13 26 7 14 - - 0.2
29/02:30am 7.9 4.0 3.6 74 1.9 SW 13 24 7 13 - - 0.2
29/02:00am 7.8 4.9 4.9 82 1.3 SW 9 19 5 10 - - 0.2
29/01:30am 8.4 5.2 5.3 81 1.4 WSW 11 20 6 11 - - 0.2

Other Formats:

Comma delimited format used in spreadsheet applications
http://www.bom.gov.au/fwo/IDV60801/IDV60801.95913.axf

JavaScript Object Notation format (JSON) in row-major order
http://www.bom.gov.au/fwo/IDV60801/IDV60801.95913.json